Huntington Woods, MI

1:31 AM EST on March 06, 2015 (GMT -0500)
APRSWXNET Ferndale MI US | Change Station
CLOSE
Current Station
Personal Weather Station
Location: Ferndale, MI
Elevation: 649 ft
Nearby Weather Stations

Elev 649 ft 42.46 °N, 83.13 °W | Updated 27 minutes ago

Clear
Clear
9 °F
Feels Like 9 °F
N
0
Wind Variable Wind from WNW
Gusts 0.0 mph

Today
High -- | Low -- °F
--% Chance of Precip.
Yesterday
High -- | Low -- °F
Precip. -- in
7:00 AM 6:28 PM
Full, 100% visible
Pressure 30.50 in
Visibility 10.0 miles
Clouds Clear
Windchill 9 °F
Dew Point 3 °F
Humidity 77%
Rainfall in
Snow Depth Not available.
UV 0 out of 12
Pollen .50 out of 12
Air Quality Not available.
Flu Activity Not available.
METAR KVLL 060614Z AUTO 00000KT 10SM CLR M12/M18 A3050 RMK AO2 T11201180

More Conditions Fewer Conditions

Pressure 30.50 in
Visibility 10.0 miles
Clouds Clear
Windchill 9 °F
Dew Point 3 °F
Humidity 77%
Rainfall in
Snow Depth Not available.
UV 0 out of 12
Pollen .50 out of 12
Air Quality Not available.
Flu Activity Not available.
METAR KVLL 060614Z AUTO 00000KT 10SM CLR M12/M18 A3050 RMK AO2 T11201180

More Conditions Fewer Conditions

10-Day Weather Forecast

Almanac

Astronomy

Mar. 06, 2015 Rise Set
Actual Time
Civil Twilight
Nautical Twilight
Astronomical Twilight
Moon
Length of Visible Light
Length of Day
Tomorrow will be .
, % of the Moon is Illuminated

Today's Extremes

State Highs State Lows

Community

WunderPhotos

Upload Photos

1,803,195 photos uploaded!

WunderBlogs® & News

Nearby

Air Quality

  Air Quality AQ Index Pollutant
Not available.

Snow Depth

Station Depth Elevation

Earthquake Activity

City Distance Mag. Time & Date
Minimum magnitude displayed is 2.5.

Coastal Water Temperatures

Place Temperature

Nearby Weather Stations